Garrisonville, Virginia
Current Conditions -  °F | °C
As of 7:35 AM on Thursday 23 Oct 2014 (Local Time) from KRMN Reporting Station
Overcast Overcast  
Wind Chill: 11°   Ceiling: 8000
Heat Index: 11°   Visibility: 10mi
Dew Point:   Wind: 12mph
Humidity: 67%   Direction: 310°NW
Pressure: 29.97"   Gusts: 18mph
Location:  38.48°N, 77.43°W
Report Text: KRMN 231135Z AUTO 31010G16KT 10SM SCT070 OVC080 11/05 A2997 RMK AO2 T01070048
Loading
Personal Weather Stations






























Interactive Weather Map
Tropical Storm Tracking
New forecast layout! Learn more

10-Day Weather Forecast

Advertisements
Track Severe Weather on mobile